Amsterdam, NY

8:27 PM EST on November 18, 2019 (GMT -0500)
East End @ Kirk Douglas House/Next to Mohawk Resources/Lifts LTD. | | Change Station
Active Advisory: Winter Weather Advisory

Elev 276 ft 42.93 °N, 74.18 °W | Updated 2 minutes ago

Overcast
Overcast
37.5 °F
Feels Like 38 °F
N
0
Wind Variable Wind from SSW
Gusts 0.0 mph

Today
High -- | Low -- °F
--% Chance of Precip.
Yesterday
High -- | Low -- °F
Precip. -- in
Pressure 29.79 in
Visibility 10.0 miles
Clouds Overcast 2500 ft
Windchill 38 °F
Dew Point 35 °F
Humidity 89%
Rainfall 0.00 in
Snow Depth Not available.
6:52 AM 4:30 PM
Waning Gibbous, 59% visible
METAR KSCH 182345Z 09006KT 10SM OVC025 03/01 A2979
Pressure 29.79 in
Visibility 10.0 miles
Clouds Overcast 2500 ft
Windchill 38 °F
Dew Point 35 °F
Humidity 89%
Rainfall 0.00 in
Snow Depth Not available.
6:52 AM 4:30 PM
Waning Gibbous, 59% visible
METAR KSCH 182345Z 09006KT 10SM OVC025 03/01 A2979

Get Your Daily Forecast Email!

Thanks for signing up!

Be on the lookout for a verification email in your inbox.

You'll start receiving severe weather alerts in your inbox..

×

10-Day Weather Forecast

Almanac

Astronomy

Nov. 18, 2019 Rise Set
Actual Time
Civil Twilight
Nautical Twilight
Astronomical Twilight
Moon
Length of Visible Light
Length of Day
Tomorrow will be .
, % of the Moon is Illuminated

Today's Extremes

State Highs State Lows

Community

WunderPhotos

Category 6

Welcome to Category 6. This is the collective home for Weather Underground's featured writeups by Dr. Jeff Masters (right), Bob Henson (left), Chris Burt, and other regular contributors.

Nearby

Air Quality

  Air Quality AQ Index Pollutant
Not available.

Snow Depth

Station Depth Elevation

Earthquake Activity

City Distance Mag. Time & Date
Minimum magnitude displayed is 2.5.

Coastal Water Temperatures

Place Temperature

Stations

Nearby Weather Stations

Station Location Temp. Windchill Dew Point Humidity Wind Precip. Elev Updated Type
                   

Watches & Warnings

Winter Weather Advisory
Issued: 6:41 PM EST Nov. 18, 2019 – National Weather Service

... Winter Weather Advisory remains in effect until 10 am EST
Tuesday...

* what... mixed precipitation expected. Snow accumulations of 1 to
3 inches and ice accumulations of around one tenth of an inch.

* Where... central Mohawk Valley, northeast Catskills, Schoharie
valley and helderbergs.

* When... until 10 am EST Tuesday.

* Impacts... plan on slippery Road conditions. The hazardous
conditions could impact the Tuesday morning commute.

Precautionary/preparedness actions...

Slow down and use caution while traveling.